Time;durP1;ratioP1;P1;durP2;ratioP2;P2;SDS_P1;SDS_P2;PMS_P1;PMS_P2;Temp;Humidity;BMP_temperature;BMP_pressure;BME280_temperature;BME280_humidity;BME280_pressure;Samples;Min_cycle;Max_cycle;Signal;HPM_P1;HPM_P2
2021/11/22 00:00:09;;;;;;;;;;;;;;;;;;1029748;28;1030;-27
2021/11/22 00:00:47;;;;;;;;;;;;;;;;;;1029586;28;894;-29
2021/11/22 00:01:17;;;;;;;;;;;;;;;;;;1020727;29;887;-27
2021/11/22 00:01:48;;;;;;;;;;;;;;;;;;1020741;29;1094;-28
2021/11/22 00:02:19;;;;;;;;;;;;;;;;;;1020828;29;932;-31
2021/11/22 00:02:50;;;;;;;;;;;;;;;;;;1021161;28;870;-28
2021/11/22 00:03:21;;;;;;;;;;;;;;;;;;1029296;28;923;-25
2021/11/22 00:03:51;;;;;;;;;;;;;;;;;;1029596;28;823;-29
2021/11/22 00:04:24;;;;;;;;;;;;;;;;;;1029579;28;1065;-29
2021/11/22 00:04:55;;;;;;;;;;;;;;;;;;1029548;28;831;-30
2021/11/22 00:05:26;;;;;;;;;;;;;;;;;;1029375;28;882;-31
2021/11/22 00:05:56;;;;;;;;;;;;;;;;;;1029581;28;1030;-29
2021/11/22 00:06:27;;;;;;;;;;;;;;;;;;1029433;28;943;-28
2021/11/22 00:06:58;;;;;;;;;;;;;;;;;;1029112;28;1266;-28
2021/11/22 00:07:28;;;;;;;;;;;;;;;;;;1029512;28;965;-27
2021/11/22 00:07:59;;;;;;;;;;;;;;;;;;1029140;28;1087;-31
2021/11/22 00:08:30;;;;;;;;;;;;;;;;;;1028563;28;894;-31
2021/11/22 00:09:00;;;;;;;;;;;;;;;;;;1028967;28;965;-30
2021/11/22 00:09:33;;;;;;;;;;;;;;;;;;1028683;28;1063;-31
2021/11/22 00:10:06;;;;;;;;;;;;;;;;;;1029171;28;1054;-31
2021/11/22 00:10:36;;;;;;;;;;;;;;;;;;1020555;29;1193;-28
2021/11/22 00:11:07;;;;;;;;;;;;;;;;;;1020739;29;1995;-32
2021/11/22 00:11:37;;;;;;;;;;;;;;;;;;1020632;29;987;-29
2021/11/22 00:12:08;;;;;;;;;;;;;;;;;;1020662;28;990;-29
2021/11/22 00:12:38;;;;;;;;;;;;;;;;;;1029362;28;1081;-29
2021/11/22 00:13:09;;;;;;;;;;;;;;;;;;1029450;28;900;-28
2021/11/22 00:13:40;;;;;;;;;;;;;;;;;;1029050;28;1626;-28
2021/11/22 00:14:11;;;;;;;;;;;;;;;;;;1024641;28;1047;-31
2021/11/22 00:14:41;;;;;;;;;;;;;;;;;;1024632;28;946;-29
2021/11/22 00:15:13;;;;;;;;;;;;;;;;;;1024536;28;1181;-26
2021/11/22 00:15:44;;;;;;;;;;;;;;;;;;1020930;28;1211;-32
2021/11/22 00:16:15;;;;;;;;;;;;;;;;;;1028519;28;1106;-27
2021/11/22 00:16:45;;;;;;;;;;;;;;;;;;1028840;28;1107;-28
2021/11/22 00:17:16;;;;;;;;;;;;;;;;;;1028611;28;909;-27
2021/11/22 00:17:46;;;;;;;;;;;;;;;;;;1033078;28;979;-28
2021/11/22 00:18:18;;;;;;;;;;;;;;;;;;1029381;28;943;-28
2021/11/22 00:18:49;;;;;;;;;;;;;;;;;;1020725;29;1339;-31
2021/11/22 00:19:19;;;;;;;;;;;;;;;;;;1020350;29;1211;-26
2021/11/22 00:19:50;;;;;;;;;;;;;;;;;;1016952;29;1082;-27
2021/11/22 00:20:21;;;;;;;;;;;;;;;;;;1017022;28;1220;-28
2021/11/22 00:20:51;;;;;;;;;;;;;;;;;;1025587;28;960;-28
2021/11/22 00:21:22;;;;;;;;;;;;;;;;;;1025205;28;886;-34
2021/11/22 00:21:53;;;;;;;;;;;;;;;;;;1025223;28;1057;-30
2021/11/22 00:22:23;;;;;;;;;;;;;;;;;;1025465;28;1303;-29
2021/11/22 00:22:54;;;;;;;;;;;;;;;;;;1025361;28;878;-27
2021/11/22 00:23:24;;;;;;;;;;;;;;;;;;1025442;28;878;-27
2021/11/22 00:23:55;;;;;;;;;;;;;;;;;;1021010;29;1110;-31
2021/11/22 00:24:25;;;;;;;;;;;;;;;;;;1021036;29;1010;-31
2021/11/22 00:24:56;;;;;;;;;;;;;;;;;;1021226;29;941;-28
2021/11/22 00:25:26;;;;;;;;;;;;;;;;;;1021165;28;949;-27
2021/11/22 00:25:57;;;;;;;;;;;;;;;;;;1025424;28;1105;-26
2021/11/22 00:26:27;;;;;;;;;;;;;;;;;;1025060;28;915;-29
2021/11/22 00:26:58;;;;;;;;;;;;;;;;;;1025441;28;878;-27
2021/11/22 00:27:29;;;;;;;;;;;;;;;;;;1025457;28;1027;-30
2021/11/22 00:28:03;;;;;;;;;;;;;;;;;;1025168;28;1001;-28
2021/11/22 00:29:03;;;;;;;;;;;;;;;;;;1021267;29;1269;-29
2021/11/22 00:29:48;;;;;;;;;;;;;;;;;;1017061;28;1197;-30
2021/11/22 00:30:42;;;;;;;;;;;;;;;;;;1007802;29;1907;-26
2021/11/22 00:31:14;;;;;;;;;;;;;;;;;;1016876;29;1201;-30
2021/11/22 00:31:52;;;;;;;;;;;;;;;;;;1017060;29;1273;-29
2021/11/22 00:32:36;;;;;;;;;;;;;;;;;;1013352;29;1385;-28
2021/11/22 00:33:42;;;;;;;;;;;;;;;;;;1005140;29;1280;-26
2021/11/22 00:34:42;;;;;;;;;;;;;;;;;;1008544;29;1402;-26
2021/11/22 00:35:35;;;;;;;;;;;;;;;;;;1016432;29;1584;-29
2021/11/22 00:36:05;;;;;;;;;;;;;;;;;;1017123;29;979;-31
2021/11/22 00:36:36;;;;;;;;;;;;;;;;;;1016325;29;1050;-27
2021/11/22 00:37:11;;;;;;;;;;;;;;;;;;1025258;28;846;-29
2021/11/22 00:37:44;;;;;;;;;;;;;;;;;;1024865;28;1300;-31
2021/11/22 00:38:14;;;;;;;;;;;;;;;;;;1025423;28;989;-29
2021/11/22 00:38:48;;;;;;;;;;;;;;;;;;1025073;28;907;-27
2021/11/22 00:39:18;;;;;;;;;;;;;;;;;;1020790;29;1173;-28
2021/11/22 00:39:49;;;;;;;;;;;;;;;;;;1020587;29;1180;-28
2021/11/22 00:40:19;;;;;;;;;;;;;;;;;;1020879;29;989;-31
2021/11/22 00:40:50;;;;;;;;;;;;;;;;;;1020658;28;863;-26
2021/11/22 00:41:21;;;;;;;;;;;;;;;;;;1025106;28;779;-26
2021/11/22 00:41:52;;;;;;;;;;;;;;;;;;1025200;28;1139;-28
2021/11/22 00:42:22;;;;;;;;;;;;;;;;;;1020811;29;1066;-27
2021/11/22 00:42:53;;;;;;;;;;;;;;;;;;1019898;29;1354;-26
2021/11/22 00:43:23;;;;;;;;;;;;;;;;;;1020878;29;1150;-28
2021/11/22 00:43:54;;;;;;;;;;;;;;;;;;1020603;28;978;-25
2021/11/22 00:44:24;;;;;;;;;;;;;;;;;;1025228;28;899;-29
2021/11/22 00:44:56;;;;;;;;;;;;;;;;;;1025414;28;847;-31
2021/11/22 00:45:27;;;;;;;;;;;;;;;;;;1025172;28;953;-29
2021/11/22 00:45:57;;;;;;;;;;;;;;;;;;1025379;28;956;-28
2021/11/22 00:46:28;;;;;;;;;;;;;;;;;;1025338;28;995;-31
2021/11/22 00:46:58;;;;;;;;;;;;;;;;;;1025154;28;791;-30
2021/11/22 00:47:29;;;;;;;;;;;;;;;;;;1025583;28;892;-27
2021/11/22 00:48:01;;;;;;;;;;;;;;;;;;1025234;28;820;-30
2021/11/22 00:48:32;;;;;;;;;;;;;;;;;;1025387;28;978;-32
2021/11/22 00:49:03;;;;;;;;;;;;;;;;;;1020526;29;992;-26
2021/11/22 00:49:34;;;;;;;;;;;;;;;;;;1020502;29;875;-29
2021/11/22 00:50:05;;;;;;;;;;;;;;;;;;1021044;29;1065;-28
2021/11/22 00:50:36;;;;;;;;;;;;;;;;;;1020634;28;1811;-28
2021/11/22 00:51:06;;;;;;;;;;;;;;;;;;1025287;28;1956;-27
2021/11/22 00:51:37;;;;;;;;;;;;;;;;;;1024866;28;952;-31
2021/11/22 00:52:07;;;;;;;;;;;;;;;;;;1025384;28;923;-27
2021/11/22 00:52:38;;;;;;;;;;;;;;;;;;1025310;28;1030;-29
2021/11/22 00:53:08;;;;;;;;;;;;;;;;;;1025153;28;1092;-25
2021/11/22 00:53:38;;;;;;;;;;;;;;;;;;1025195;28;886;-29
2021/11/22 00:54:09;;;;;;;;;;;;;;;;;;1025308;28;935;-29
2021/11/22 00:54:39;;;;;;;;;;;;;;;;;;1025273;28;807;-31
2021/11/22 00:55:10;;;;;;;;;;;;;;;;;;1025344;28;1308;-30
2021/11/22 00:55:41;;;;;;;;;;;;;;;;;;1025446;28;1000;-27
2021/11/22 00:56:16;;;;;;;;;;;;;;;;;;1025259;28;887;-29
2021/11/22 00:56:46;;;;;;;;;;;;;;;;;;1025303;28;930;-32
2021/11/22 00:57:17;;;;;;;;;;;;;;;;;;1025346;28;898;-28
2021/11/22 00:57:47;;;;;;;;;;;;;;;;;;1025393;28;894;-28
2021/11/22 00:58:18;;;;;;;;;;;;;;;;;;1025215;28;1123;-31
2021/11/22 00:58:49;;;;;;;;;;;;;;;;;;1025189;28;791;-28
2021/11/22 00:59:19;;;;;;;;;;;;;;;;;;1025377;28;1061;-30
2021/11/22 00:59:50;;;;;;;;;;;;;;;;;;1025229;28;1026;-31
2021/11/22 01:00:20;;;;;;;;;;;;;;;;;;1025351;28;815;-31
2021/11/22 01:00:51;;;;;;;;;;;;;;;;;;1025443;28;1045;-30
2021/11/22 01:01:21;;;;;;;;;;;;;;;;;;1025286;28;800;-27
2021/11/22 01:01:52;;;;;;;;;;;;;;;;;;1024868;28;911;-26
2021/11/22 01:02:22;;;;;;;;;;;;;;;;;;1025418;28;1108;-29
2021/11/22 01:02:53;;;;;;;;;;;;;;;;;;1025146;28;883;-27
2021/11/22 01:03:24;;;;;;;;;;;;;;;;;;1025666;28;876;-29
2021/11/22 01:03:54;;;;;;;;;;;;;;;;;;1025102;28;839;-28
2021/11/22 01:04:25;;;;;;;;;;;;;;;;;;1025386;28;975;-26
2021/11/22 01:04:55;;;;;;;;;;;;;;;;;;1025473;28;985;-27
2021/11/22 01:05:26;;;;;;;;;;;;;;;;;;1025100;28;816;-31
2021/11/22 01:05:56;;;;;;;;;;;;;;;;;;1025365;28;1050;-30
2021/11/22 01:06:27;;;;;;;;;;;;;;;;;;1025017;28;1030;-28
2021/11/22 01:06:57;;;;;;;;;;;;;;;;;;1024657;28;1590;-27
2021/11/22 01:07:28;;;;;;;;;;;;;;;;;;1025309;28;987;-28
2021/11/22 01:07:58;;;;;;;;;;;;;;;;;;1024896;28;1150;-29
2021/11/22 01:08:30;;;;;;;;;;;;;;;;;;1025276;28;978;-27
2021/11/22 01:09:00;;;;;;;;;;;;;;;;;;1020447;29;980;-28
2021/11/22 01:09:31;;;;;;;;;;;;;;;;;;1020440;29;1066;-32
2021/11/22 01:10:03;;;;;;;;;;;;;;;;;;1020713;29;946;-31
2021/11/22 01:10:34;;;;;;;;;;;;;;;;;;1020820;28;921;-30
2021/11/22 01:11:04;;;;;;;;;;;;;;;;;;1025209;28;1966;-29
2021/11/22 01:11:35;;;;;;;;;;;;;;;;;;1025108;28;891;-27
2021/11/22 01:12:06;;;;;;;;;;;;;;;;;;1025096;28;883;-27
2021/11/22 01:12:36;;;;;;;;;;;;;;;;;;1025323;28;927;-29
2021/11/22 01:13:07;;;;;;;;;;;;;;;;;;1025001;28;1305;-29
2021/11/22 01:13:37;;;;;;;;;;;;;;;;;;1024980;28;1228;-26
2021/11/22 01:14:09;;;;;;;;;;;;;;;;;;1025426;28;1079;-27
2021/11/22 01:14:39;;;;;;;;;;;;;;;;;;1024972;28;1084;-27
2021/11/22 01:15:12;;;;;;;;;;;;;;;;;;1025327;28;1120;-27
2021/11/22 01:15:42;;;;;;;;;;;;;;;;;;1025385;28;863;-27
2021/11/22 01:16:13;;;;;;;;;;;;;;;;;;1025295;28;834;-27
2021/11/22 01:16:44;;;;;;;;;;;;;;;;;;1025037;28;820;-30
2021/11/22 01:17:15;;;;;;;;;;;;;;;;;;1025232;28;807;-28
2021/11/22 01:17:46;;;;;;;;;;;;;;;;;;1025351;28;938;-27
2021/11/22 01:18:17;;;;;;;;;;;;;;;;;;1025542;28;970;-29
2021/11/22 01:18:47;;;;;;;;;;;;;;;;;;1024894;28;1154;-32
2021/11/22 01:19:18;;;;;;;;;;;;;;;;;;1025403;28;1022;-26
2021/11/22 01:19:51;;;;;;;;;;;;;;;;;;1028661;28;1949;-27
2021/11/22 01:20:28;;;;;;;;;;;;;;;;;;1029259;28;1047;-27
2021/11/22 01:20:59;;;;;;;;;;;;;;;;;;1029188;28;1083;-27
2021/11/22 01:21:29;;;;;;;;;;;;;;;;;;1029128;28;855;-28
2021/11/22 01:22:00;;;;;;;;;;;;;;;;;;1029032;28;946;-30
2021/11/22 01:22:30;;;;;;;;;;;;;;;;;;1029232;28;1322;-30
2021/11/22 01:23:04;;;;;;;;;;;;;;;;;;1029158;28;930;-33
2021/11/22 01:23:34;;;;;;;;;;;;;;;;;;1029201;28;938;-27
2021/11/22 01:24:05;;;;;;;;;;;;;;;;;;1029434;28;927;-28
2021/11/22 01:24:36;;;;;;;;;;;;;;;;;;1029053;28;881;-32
2021/11/22 01:25:08;;;;;;;;;;;;;;;;;;1029427;28;938;-29
2021/11/22 01:25:39;;;;;;;;;;;;;;;;;;1029079;28;1054;-31
2021/11/22 01:26:10;;;;;;;;;;;;;;;;;;1024447;28;1039;-30
2021/11/22 01:26:40;;;;;;;;;;;;;;;;;;1024682;28;982;-31
2021/11/22 01:27:11;;;;;;;;;;;;;;;;;;1024222;28;933;-27
2021/11/22 01:27:41;;;;;;;;;;;;;;;;;;1024853;28;911;-28
2021/11/22 01:28:12;;;;;;;;;;;;;;;;;;1029108;28;1026;-33
2021/11/22 01:28:42;;;;;;;;;;;;;;;;;;1029553;28;775;-28
2021/11/22 01:29:14;;;;;;;;;;;;;;;;;;1029124;28;863;-30
2021/11/22 01:29:45;;;;;;;;;;;;;;;;;;1029148;28;815;-33
2021/11/22 01:30:15;;;;;;;;;;;;;;;;;;1029155;28;1548;-30
2021/11/22 01:30:46;;;;;;;;;;;;;;;;;;1029178;28;1918;-33
2021/11/22 01:31:16;;;;;;;;;;;;;;;;;;1029182;28;1186;-30
2021/11/22 01:31:47;;;;;;;;;;;;;;;;;;1028961;28;1114;-29
2021/11/22 01:32:17;;;;;;;;;;;;;;;;;;1029320;28;853;-32
2021/11/22 01:32:48;;;;;;;;;;;;;;;;;;1029335;28;862;-31
2021/11/22 01:33:19;;;;;;;;;;;;;;;;;;1029222;28;865;-31
2021/11/22 01:33:50;;;;;;;;;;;;;;;;;;1029216;28;851;-29
2021/11/22 01:34:20;;;;;;;;;;;;;;;;;;1029401;28;1115;-29
2021/11/22 01:34:51;;;;;;;;;;;;;;;;;;1028880;28;927;-27
2021/11/22 01:35:22;;;;;;;;;;;;;;;;;;1029274;28;862;-27
2021/11/22 01:35:52;;;;;;;;;;;;;;;;;;1029135;28;926;-31
2021/11/22 01:36:23;;;;;;;;;;;;;;;;;;1029520;28;874;-27
2021/11/22 01:36:53;;;;;;;;;;;;;;;;;;1028995;28;1337;-29
2021/11/22 01:37:24;;;;;;;;;;;;;;;;;;1029347;28;1050;-28
2021/11/22 01:37:55;;;;;;;;;;;;;;;;;;1029131;28;819;-28
2021/11/22 01:38:25;;;;;;;;;;;;;;;;;;1029317;28;925;-30
2021/11/22 01:38:56;;;;;;;;;;;;;;;;;;1029252;28;1053;-28
2021/11/22 01:39:26;;;;;;;;;;;;;;;;;;1029424;28;748;-29
2021/11/22 01:39:57;;;;;;;;;;;;;;;;;;1028998;28;978;-28
2021/11/22 01:40:28;;;;;;;;;;;;;;;;;;1028522;28;1073;-30
2021/11/22 01:41:01;;;;;;;;;;;;;;;;;;1028407;28;972;-27
2021/11/22 01:41:31;;;;;;;;;;;;;;;;;;1028536;28;1070;-28
2021/11/22 01:42:02;;;;;;;;;;;;;;;;;;1028228;28;1440;-29
2021/11/22 01:42:32;;;;;;;;;;;;;;;;;;1029289;28;1051;-28
2021/11/22 01:43:03;;;;;;;;;;;;;;;;;;1024410;28;1215;-28
2021/11/22 01:43:34;;;;;;;;;;;;;;;;;;1024425;28;1061;-29
2021/11/22 01:44:05;;;;;;;;;;;;;;;;;;1024506;28;978;-29
2021/11/22 01:44:36;;;;;;;;;;;;;;;;;;1020409;29;932;-27
2021/11/22 01:45:07;;;;;;;;;;;;;;;;;;1016480;29;909;-26
2021/11/22 01:45:38;;;;;;;;;;;;;;;;;;1016557;29;1068;-31
2021/11/22 01:46:14;;;;;;;;;;;;;;;;;;1017242;28;903;-34
2021/11/22 01:46:46;;;;;;;;;;;;;;;;;;1029437;28;1325;-34
2021/11/22 01:47:16;;;;;;;;;;;;;;;;;;1029142;28;870;-26
2021/11/22 01:47:48;;;;;;;;;;;;;;;;;;1029183;28;965;-29
2021/11/22 01:48:19;;;;;;;;;;;;;;;;;;1029255;28;843;-31
2021/11/22 01:48:49;;;;;;;;;;;;;;;;;;1028783;28;1430;-30
2021/11/22 01:49:20;;;;;;;;;;;;;;;;;;1029290;28;1079;-31
2021/11/22 01:49:50;;;;;;;;;;;;;;;;;;1029210;28;870;-29
2021/11/22 01:50:21;;;;;;;;;;;;;;;;;;1029013;28;1021;-28
2021/11/22 01:50:53;;;;;;;;;;;;;;;;;;1029027;28;1977;-29
2021/11/22 01:51:24;;;;;;;;;;;;;;;;;;1029397;28;819;-26
2021/11/22 01:51:54;;;;;;;;;;;;;;;;;;1020351;29;1014;-29
2021/11/22 01:52:24;;;;;;;;;;;;;;;;;;1020638;29;1053;-29
2021/11/22 01:52:55;;;;;;;;;;;;;;;;;;1020330;29;1104;-32
2021/11/22 01:53:26;;;;;;;;;;;;;;;;;;1020709;28;1351;-30
2021/11/22 01:53:57;;;;;;;;;;;;;;;;;;1029347;28;891;-28
2021/11/22 01:54:27;;;;;;;;;;;;;;;;;;1029053;28;1155;-28
2021/11/22 01:54:57;;;;;;;;;;;;;;;;;;1029199;28;1050;-26
2021/11/22 01:55:29;;;;;;;;;;;;;;;;;;1029144;28;815;-27
2021/11/22 01:56:00;;;;;;;;;;;;;;;;;;1029414;28;897;-29
2021/11/22 01:56:30;;;;;;;;;;;;;;;;;;1029262;28;923;-29
2021/11/22 01:57:01;;;;;;;;;;;;;;;;;;1028997;28;866;-30
2021/11/22 01:57:32;;;;;;;;;;;;;;;;;;1029577;28;961;-32
2021/11/22 01:58:03;;;;;;;;;;;;;;;;;;1029127;28;850;-32
2021/11/22 01:58:36;;;;;;;;;;;;;;;;;;1029138;28;997;-28
2021/11/22 01:59:06;;;;;;;;;;;;;;;;;;1029362;28;930;-28
2021/11/22 01:59:37;;;;;;;;;;;;;;;;;;1023885;28;1198;-26
2021/11/22 02:00:09;;;;;;;;;;;;;;;;;;1024270;28;1088;-27
2021/11/22 02:00:47;;;;;;;;;;;;;;;;;;1024479;28;1013;-30
2021/11/22 02:01:17;;;;;;;;;;;;;;;;;;1025698;28;883;-30
2021/11/22 02:01:48;;;;;;;;;;;;;;;;;;1029190;28;975;-30
2021/11/22 02:02:18;;;;;;;;;;;;;;;;;;1028651;28;1403;-29
2021/11/22 02:02:49;;;;;;;;;;;;;;;;;;1029027;28;925;-30
2021/11/22 02:03:21;;;;;;;;;;;;;;;;;;1020627;29;1074;-27
2021/11/22 02:03:52;;;;;;;;;;;;;;;;;;1020123;29;1227;-28
2021/11/22 02:04:22;;;;;;;;;;;;;;;;;;1020711;29;1193;-30
2021/11/22 02:04:53;;;;;;;;;;;;;;;;;;1021188;28;896;-27
2021/11/22 02:05:23;;;;;;;;;;;;;;;;;;1029025;28;1013;-27
2021/11/22 02:05:54;;;;;;;;;;;;;;;;;;1029234;28;1081;-29
2021/11/22 02:06:24;;;;;;;;;;;;;;;;;;1028751;28;1400;-29
2021/11/22 02:06:55;;;;;;;;;;;;;;;;;;1029306;28;1102;-29
2021/11/22 02:07:25;;;;;;;;;;;;;;;;;;1029249;28;911;-32
2021/11/22 02:07:56;;;;;;;;;;;;;;;;;;1029043;28;1224;-30
2021/11/22 02:08:27;;;;;;;;;;;;;;;;;;1029212;28;971;-30
2021/11/22 02:08:57;;;;;;;;;;;;;;;;;;1027104;28;1638;-31
2021/11/22 02:09:27;;;;;;;;;;;;;;;;;;1029061;28;839;-31
2021/11/22 02:09:58;;;;;;;;;;;;;;;;;;1029423;28;889;-27
2021/11/22 02:10:28;;;;;;;;;;;;;;;;;;1028874;28;941;-28
2021/11/22 02:10:59;;;;;;;;;;;;;;;;;;1029179;28;1980;-29
2021/11/22 02:11:30;;;;;;;;;;;;;;;;;;1028986;28;1002;-32
2021/11/22 02:12:00;;;;;;;;;;;;;;;;;;1029319;28;822;-28
2021/11/22 02:12:31;;;;;;;;;;;;;;;;;;1029111;28;917;-27
2021/11/22 02:13:02;;;;;;;;;;;;;;;;;;1029135;28;803;-29
2021/11/22 02:13:33;;;;;;;;;;;;;;;;;;1029171;28;899;-29
2021/11/22 02:14:03;;;;;;;;;;;;;;;;;;1029194;28;1285;-28
2021/11/22 02:14:34;;;;;;;;;;;;;;;;;;1028860;28;1131;-27
2021/11/22 02:15:06;;;;;;;;;;;;;;;;;;1029259;28;1044;-32
2021/11/22 02:15:37;;;;;;;;;;;;;;;;;;1028963;28;996;-29
2021/11/22 02:16:07;;;;;;;;;;;;;;;;;;1029128;28;791;-30
2021/11/22 02:16:38;;;;;;;;;;;;;;;;;;1029336;28;943;-31
2021/11/22 02:17:09;;;;;;;;;;;;;;;;;;1029006;28;893;-27
2021/11/22 02:17:41;;;;;;;;;;;;;;;;;;1020305;28;925;-32
2021/11/22 02:18:12;;;;;;;;;;;;;;;;;;1020746;28;1417;-31
2021/11/22 02:18:43;;;;;;;;;;;;;;;;;;1021118;29;1043;-26
2021/11/22 02:19:14;;;;;;;;;;;;;;;;;;1022325;28;888;-30
2021/11/22 02:19:55;;;;;;;;;;;;;;;;;;1020822;29;959;-28
2021/11/22 02:20:27;;;;;;;;;;;;;;;;;;1013319;29;666;-29
2021/11/22 02:20:58;;;;;;;;;;;;;;;;;;1013325;29;1715;-28
2021/11/22 02:21:28;;;;;;;;;;;;;;;;;;1016804;29;892;-26
2021/11/22 02:21:59;;;;;;;;;;;;;;;;;;1021797;29;879;-31
2021/11/22 02:22:31;;;;;;;;;;;;;;;;;;1021664;29;882;-28
2021/11/22 02:23:03;;;;;;;;;;;;;;;;;;1021182;29;911;-28
2021/11/22 02:23:35;;;;;;;;;;;;;;;;;;1021127;29;967;-31
2021/11/22 02:24:05;;;;;;;;;;;;;;;;;;1021425;29;969;-28
2021/11/22 02:24:36;;;;;;;;;;;;;;;;;;1021245;29;969;-28
2021/11/22 02:25:08;;;;;;;;;;;;;;;;;;1022027;29;892;-29
2021/11/22 02:25:40;;;;;;;;;;;;;;;;;;1021865;29;932;-29
2021/11/22 02:26:10;;;;;;;;;;;;;;;;;;1021723;29;883;-29
2021/11/22 02:26:41;;;;;;;;;;;;;;;;;;1022015;29;836;-27
2021/11/22 02:27:11;;;;;;;;;;;;;;;;;;1021935;29;906;-29
2021/11/22 02:27:42;;;;;;;;;;;;;;;;;;1021691;29;943;-30
2021/11/22 02:28:14;;;;;;;;;;;;;;;;;;1021941;29;974;-30
2021/11/22 02:28:44;;;;;;;;;;;;;;;;;;1021553;29;788;-27
2021/11/22 02:29:15;;;;;;;;;;;;;;;;;;1022187;29;971;-29
2021/11/22 02:29:45;;;;;;;;;;;;;;;;;;1021524;29;892;-29
2021/11/22 02:30:17;;;;;;;;;;;;;;;;;;1022097;29;859;-29
2021/11/22 02:30:48;;;;;;;;;;;;;;;;;;1021805;29;1973;-31
2021/11/22 02:31:18;;;;;;;;;;;;;;;;;;1021455;29;1417;-31
2021/11/22 02:31:49;;;;;;;;;;;;;;;;;;1017558;29;1118;-30
2021/11/22 02:32:20;;;;;;;;;;;;;;;;;;1013211;29;982;-30
2021/11/22 02:32:50;;;;;;;;;;;;;;;;;;1013018;29;1121;-28
2021/11/22 02:33:24;;;;;;;;;;;;;;;;;;1013595;29;888;-27
2021/11/22 02:33:54;;;;;;;;;;;;;;;;;;1017759;29;1102;-33
2021/11/22 02:34:25;;;;;;;;;;;;;;;;;;1021658;29;799;-29
2021/11/22 02:34:55;;;;;;;;;;;;;;;;;;1021987;29;1535;-30
2021/11/22 02:35:26;;;;;;;;;;;;;;;;;;1021540;29;1021;-27
2021/11/22 02:35:58;;;;;;;;;;;;;;;;;;1022050;29;856;-28
2021/11/22 02:36:30;;;;;;;;;;;;;;;;;;1021682;29;927;-32
2021/11/22 02:37:01;;;;;;;;;;;;;;;;;;1016610;29;1347;-29
2021/11/22 02:37:32;;;;;;;;;;;;;;;;;;1017282;29;1132;-30
2021/11/22 02:38:02;;;;;;;;;;;;;;;;;;1017174;29;877;-29
2021/11/22 02:38:35;;;;;;;;;;;;;;;;;;1017239;29;1032;-29
2021/11/22 02:39:07;;;;;;;;;;;;;;;;;;1017569;29;960;-30
2021/11/22 02:39:37;;;;;;;;;;;;;;;;;;1017121;29;1631;-26
2021/11/22 02:40:08;;;;;;;;;;;;;;;;;;1017760;29;1222;-29
2021/11/22 02:40:38;;;;;;;;;;;;;;;;;;1021696;29;962;-30
2021/11/22 02:41:10;;;;;;;;;;;;;;;;;;1021813;29;956;-28
2021/11/22 02:41:41;;;;;;;;;;;;;;;;;;1021906;29;946;-30
2021/11/22 02:42:13;;;;;;;;;;;;;;;;;;1021775;29;803;-31
2021/11/22 02:42:44;;;;;;;;;;;;;;;;;;1021694;29;835;-26
2021/11/22 02:43:16;;;;;;;;;;;;;;;;;;1021835;29;883;-28
2021/11/22 02:43:47;;;;;;;;;;;;;;;;;;1021751;29;807;-28
2021/11/22 02:44:17;;;;;;;;;;;;;;;;;;1022107;29;923;-28
2021/11/22 02:44:48;;;;;;;;;;;;;;;;;;1021477;29;890;-27
2021/11/22 02:45:20;;;;;;;;;;;;;;;;;;1021897;29;1136;-29
2021/11/22 02:45:51;;;;;;;;;;;;;;;;;;1013066;29;984;-30
2021/11/22 02:46:21;;;;;;;;;;;;;;;;;;1013076;29;912;-29
2021/11/22 02:46:52;;;;;;;;;;;;;;;;;;1013267;29;1015;-30
2021/11/22 02:47:23;;;;;;;;;;;;;;;;;;1013135;29;916;-32
2021/11/22 02:47:53;;;;;;;;;;;;;;;;;;1021847;29;934;-27
2021/11/22 02:48:24;;;;;;;;;;;;;;;;;;1021818;29;972;-30
2021/11/22 02:48:55;;;;;;;;;;;;;;;;;;1021583;29;1059;-29
2021/11/22 02:49:25;;;;;;;;;;;;;;;;;;1021989;29;906;-27
2021/11/22 02:49:56;;;;;;;;;;;;;;;;;;1021899;29;893;-27
2021/11/22 02:50:26;;;;;;;;;;;;;;;;;;1021804;29;867;-28
2021/11/22 02:50:56;;;;;;;;;;;;;;;;;;1021647;29;1903;-29
2021/11/22 02:51:27;;;;;;;;;;;;;;;;;;1021414;29;1266;-27
2021/11/22 02:51:58;;;;;;;;;;;;;;;;;;1017551;29;796;-34
2021/11/22 02:52:28;;;;;;;;;;;;;;;;;;1017537;29;924;-30
2021/11/22 02:52:58;;;;;;;;;;;;;;;;;;1017404;29;855;-27
2021/11/22 02:53:29;;;;;;;;;;;;;;;;;;1017513;29;967;-30
2021/11/22 02:54:00;;;;;;;;;;;;;;;;;;1021870;29;885;-29
2021/11/22 02:54:31;;;;;;;;;;;;;;;;;;1021577;29;1696;-28
2021/11/22 02:55:02;;;;;;;;;;;;;;;;;;1021777;29;932;-30
2021/11/22 02:55:32;;;;;;;;;;;;;;;;;;1021907;29;930;-31
2021/11/22 02:56:06;;;;;;;;;;;;;;;;;;1021647;29;1105;-27
2021/11/22 02:56:36;;;;;;;;;;;;;;;;;;1021863;29;1046;-30
2021/11/22 02:57:07;;;;;;;;;;;;;;;;;;1021743;29;851;-28
2021/11/22 02:57:38;;;;;;;;;;;;;;;;;;1021530;29;1616;-29
2021/11/22 02:58:08;;;;;;;;;;;;;;;;;;1021686;29;944;-30
2021/11/22 02:58:39;;;;;;;;;;;;;;;;;;1021713;29;1041;-28
2021/11/22 02:59:09;;;;;;;;;;;;;;;;;;1022079;29;1074;-26
2021/11/22 02:59:41;;;;;;;;;;;;;;;;;;1021640;29;914;-27
2021/11/22 03:00:14;;;;;;;;;;;;;;;;;;1013298;29;948;-30
2021/11/22 03:00:44;;;;;;;;;;;;;;;;;;1013127;29;907;-27
2021/11/22 03:01:15;;;;;;;;;;;;;;;;;;1013238;29;835;-29
2021/11/22 03:01:45;;;;;;;;;;;;;;;;;;1013671;29;851;-31
2021/11/22 03:02:15;;;;;;;;;;;;;;;;;;1021660;29;939;-30
2021/11/22 03:02:46;;;;;;;;;;;;;;;;;;1021665;29;815;-31
2021/11/22 03:03:17;;;;;;;;;;;;;;;;;;1021882;29;939;-26
2021/11/22 03:03:48;;;;;;;;;;;;;;;;;;1021477;29;780;-28
2021/11/22 03:04:18;;;;;;;;;;;;;;;;;;1013245;29;1137;-30
2021/11/22 03:04:49;;;;;;;;;;;;;;;;;;1013184;29;1164;-27
2021/11/22 03:05:20;;;;;;;;;;;;;;;;;;1013111;29;907;-28
2021/11/22 03:05:59;;;;;;;;;;;;;;;;;;1013617;29;988;-27
2021/11/22 03:06:30;;;;;;;;;;;;;;;;;;1020811;29;1051;-28
2021/11/22 03:07:01;;;;;;;;;;;;;;;;;;1020824;29;949;-30
2021/11/22 03:07:32;;;;;;;;;;;;;;;;;;1021023;28;1026;-28
2021/11/22 03:08:02;;;;;;;;;;;;;;;;;;1020469;29;1259;-27
2021/11/22 03:08:33;;;;;;;;;;;;;;;;;;1021938;29;1100;-28
2021/11/22 03:09:04;;;;;;;;;;;;;;;;;;1021699;29;965;-31
2021/11/22 03:09:39;;;;;;;;;;;;;;;;;;1017332;29;1167;-27
2021/11/22 03:10:12;;;;;;;;;;;;;;;;;;1013047;29;982;-28
2021/11/22 03:10:42;;;;;;;;;;;;;;;;;;1013090;29;987;-32
2021/11/22 03:11:14;;;;;;;;;;;;;;;;;;1013968;29;1910;-29
2021/11/22 03:11:44;;;;;;;;;;;;;;;;;;1017278;29;1051;-27
2021/11/22 03:12:15;;;;;;;;;;;;;;;;;;1021500;29;975;-33
2021/11/22 03:12:45;;;;;;;;;;;;;;;;;;1021671;29;804;-27
2021/11/22 03:13:16;;;;;;;;;;;;;;;;;;1021456;29;1194;-28
2021/11/22 03:13:47;;;;;;;;;;;;;;;;;;1021543;29;1217;-27
2021/11/22 03:14:17;;;;;;;;;;;;;;;;;;1021753;29;1031;-28
2021/11/22 03:14:48;;;;;;;;;;;;;;;;;;1021486;29;1029;-30
2021/11/22 03:15:20;;;;;;;;;;;;;;;;;;1021874;29;866;-26
2021/11/22 03:15:50;;;;;;;;;;;;;;;;;;1021612;29;907;-30
2021/11/22 03:16:20;;;;;;;;;;;;;;;;;;1021697;29;855;-30
2021/11/22 03:16:51;;;;;;;;;;;;;;;;;;1021634;29;968;-27
2021/11/22 03:17:22;;;;;;;;;;;;;;;;;;1021560;29;1291;-32
2021/11/22 03:17:52;;;;;;;;;;;;;;;;;;1021671;29;804;-28
2021/11/22 03:18:23;;;;;;;;;;;;;;;;;;1021679;29;1194;-29
2021/11/22 03:18:53;;;;;;;;;;;;;;;;;;1021574;29;824;-32
2021/11/22 03:19:24;;;;;;;;;;;;;;;;;;1021859;29;929;-28
2021/11/22 03:19:55;;;;;;;;;;;;;;;;;;1021747;29;963;-27
2021/11/22 03:20:25;;;;;;;;;;;;;;;;;;1029253;28;1126;-27
2021/11/22 03:20:56;;;;;;;;;;;;;;;;;;1029803;28;1401;-30
2021/11/22 03:21:27;;;;;;;;;;;;;;;;;;1029554;28;894;-29
2021/11/22 03:21:58;;;;;;;;;;;;;;;;;;1029638;28;917;-25
2021/11/22 03:22:29;;;;;;;;;;;;;;;;;;1029174;28;1256;-26
2021/11/22 03:22:59;;;;;;;;;;;;;;;;;;1029653;28;1050;-29
2021/11/22 03:23:31;;;;;;;;;;;;;;;;;;1029663;28;1099;-29
2021/11/22 03:24:01;;;;;;;;;;;;;;;;;;1029597;28;974;-28
2021/11/22 03:24:32;;;;;;;;;;;;;;;;;;1029967;28;951;-29
2021/11/22 03:25:04;;;;;;;;;;;;;;;;;;1029467;28;1106;-30
2021/11/22 03:25:34;;;;;;;;;;;;;;;;;;1020938;29;1192;-30
2021/11/22 03:26:06;;;;;;;;;;;;;;;;;;1020914;29;966;-30
2021/11/22 03:26:36;;;;;;;;;;;;;;;;;;1016917;29;1046;-29
2021/11/22 03:27:07;;;;;;;;;;;;;;;;;;1016785;29;1166;-28
2021/11/22 03:27:38;;;;;;;;;;;;;;;;;;1021024;29;1016;-28
2021/11/22 03:28:11;;;;;;;;;;;;;;;;;;1021381;28;1038;-31
2021/11/22 03:28:42;;;;;;;;;;;;;;;;;;1029749;28;948;-29
2021/11/22 03:29:12;;;;;;;;;;;;;;;;;;1029676;28;997;-28
2021/11/22 03:29:43;;;;;;;;;;;;;;;;;;1029106;28;973;-29
2021/11/22 03:30:14;;;;;;;;;;;;;;;;;;1029296;28;766;-27
2021/11/22 03:30:45;;;;;;;;;;;;;;;;;;1029505;28;970;-31
2021/11/22 03:31:16;;;;;;;;;;;;;;;;;;1029694;28;1911;-28
2021/11/22 03:31:46;;;;;;;;;;;;;;;;;;1029200;28;1057;-32
2021/11/22 03:32:17;;;;;;;;;;;;;;;;;;1029598;28;882;-34
2021/11/22 03:32:47;;;;;;;;;;;;;;;;;;1029477;28;926;-27
2021/11/22 03:33:18;;;;;;;;;;;;;;;;;;1029688;28;1070;-28
2021/11/22 03:33:49;;;;;;;;;;;;;;;;;;1029644;28;854;-29
2021/11/22 03:34:20;;;;;;;;;;;;;;;;;;1029706;28;946;-28
2021/11/22 03:34:51;;;;;;;;;;;;;;;;;;1021105;29;1040;-27
2021/11/22 03:35:22;;;;;;;;;;;;;;;;;;1016731;29;1117;-25
2021/11/22 03:35:55;;;;;;;;;;;;;;;;;;1017017;29;967;-30
2021/11/22 03:36:27;;;;;;;;;;;;;;;;;;1017723;28;1150;-27
2021/11/22 03:37:03;;;;;;;;;;;;;;;;;;1021251;28;950;-28
2021/11/22 03:37:33;;;;;;;;;;;;;;;;;;1024737;28;935;-31
2021/11/22 03:38:05;;;;;;;;;;;;;;;;;;1024531;28;1318;-29
2021/11/22 03:38:36;;;;;;;;;;;;;;;;;;1025954;28;1058;-29
2021/11/22 03:39:20;;;;;;;;;;;;;;;;;;1029856;28;939;-26
2021/11/22 03:39:52;;;;;;;;;;;;;;;;;;1029471;28;1154;-34
2021/11/22 03:40:23;;;;;;;;;;;;;;;;;;1029508;28;930;-26